sensor_id;sensor_type;location;lat;lon;timestamp;pressure;altitude;pressure_sealevel;temperature;humidity
42067;BME280;27734;47.028;28.820;2022-10-23T00:01:17;100310.91;;;12.49;64.66
42067;BME280;27734;47.028;28.820;2022-10-23T00:03:46;100296.00;;;12.48;64.66
42067;BME280;27734;47.028;28.820;2022-10-23T00:06:14;100304.81;;;12.50;64.41
42067;BME280;27734;47.028;28.820;2022-10-23T00:08:43;100295.13;;;12.49;64.79
42067;BME280;27734;47.028;28.820;2022-10-23T00:11:14;100290.77;;;12.50;64.58
42067;BME280;27734;47.028;28.820;2022-10-23T00:13:44;100288.98;;;12.49;64.74
42067;BME280;27734;47.028;28.820;2022-10-23T00:16:12;100282.84;;;12.48;64.58
42067;BME280;27734;47.028;28.820;2022-10-23T00:18:40;100288.10;;;12.48;64.59
42067;BME280;27734;47.028;28.820;2022-10-23T00:21:10;100284.52;;;12.46;64.73
42067;BME280;27734;47.028;28.820;2022-10-23T00:23:39;100274.72;;;12.39;65.26
42067;BME280;27734;47.028;28.820;2022-10-23T00:26:08;100289.75;;;12.45;64.71
42067;BME280;27734;47.028;28.820;2022-10-23T00:28:37;100287.08;;;12.43;64.97
42067;BME280;27734;47.028;28.820;2022-10-23T00:31:06;100273.95;;;12.45;64.73
42067;BME280;27734;47.028;28.820;2022-10-23T00:33:35;100278.34;;;12.44;64.76
42067;BME280;27734;47.028;28.820;2022-10-23T00:36:05;100265.19;;;12.44;64.89
42067;BME280;27734;47.028;28.820;2022-10-23T00:38:34;100260.80;;;12.45;64.83
42067;BME280;27734;47.028;28.820;2022-10-23T00:41:07;100264.34;;;12.45;64.90
42067;BME280;27734;47.028;28.820;2022-10-23T00:43:59;100274.87;;;12.45;65.22
42067;BME280;27734;47.028;28.820;2022-10-23T00:46:28;100275.75;;;12.46;65.08
42067;BME280;27734;47.028;28.820;2022-10-23T00:48:57;100269.64;;;12.47;64.93
42067;BME280;27734;47.028;28.820;2022-10-23T00:51:30;100272.31;;;12.48;64.90
42067;BME280;27734;47.028;28.820;2022-10-23T00:54:01;100269.64;;;12.47;65.04
42067;BME280;27734;47.028;28.820;2022-10-23T00:56:32;100259.95;;;12.46;65.07
42067;BME280;27734;47.028;28.820;2022-10-23T00:59:04;100252.03;;;12.44;64.96
42067;BME280;27734;47.028;28.820;2022-10-23T01:01:32;100264.30;;;12.44;65.16
42067;BME280;27734;47.028;28.820;2022-10-23T01:04:01;100261.71;;;12.45;65.11
42067;BME280;27734;47.028;28.820;2022-10-23T01:06:35;100258.17;;;12.45;64.92
42067;BME280;27734;47.028;28.820;2022-10-23T01:09:10;100259.05;;;12.44;65.34
42067;BME280;27734;47.028;28.820;2022-10-23T01:11:43;100267.81;;;12.44;65.15
42067;BME280;27734;47.028;28.820;2022-10-23T01:14:22;100273.08;;;12.44;65.17
42067;BME280;27734;47.028;28.820;2022-10-23T01:16:59;100292.38;;;12.45;65.39
42067;BME280;27734;47.028;28.820;2022-10-23T01:19:43;100280.13;;;12.45;65.39
42067;BME280;27734;47.028;28.820;2022-10-23T01:22:26;100267.78;;;12.43;65.50
42067;BME280;27734;47.028;28.820;2022-10-23T01:25:00;100267.78;;;12.43;65.52
42067;BME280;27734;47.028;28.820;2022-10-23T01:27:32;100273.04;;;12.43;65.36
42067;BME280;27734;47.028;28.820;2022-10-23T01:30:06;100280.94;;;12.43;65.37
42067;BME280;27734;47.028;28.820;2022-10-23T01:32:44;100263.28;;;12.38;65.73
42067;BME280;27734;47.028;28.820;2022-10-23T01:35:20;100230.61;;;12.29;66.31
42067;BME280;27734;47.028;28.820;2022-10-23T01:38:02;100235.75;;;12.24;66.19
42067;BME280;27734;47.028;28.820;2022-10-23T01:40:39;100256.76;;;12.22;65.83
42067;BME280;27734;47.028;28.820;2022-10-23T01:43:13;100270.83;;;12.25;66.10
42067;BME280;27734;47.028;28.820;2022-10-23T01:45:46;100264.69;;;12.24;66.11
42067;BME280;27734;47.028;28.820;2022-10-23T01:48:22;100269.07;;;12.23;66.11
42067;BME280;27734;47.028;28.820;2022-10-23T01:50:53;100280.52;;;12.26;65.93
42067;BME280;27734;47.028;28.820;2022-10-23T01:53:26;100283.14;;;12.26;66.12
42067;BME280;27734;47.028;28.820;2022-10-23T01:55:59;100289.24;;;12.25;66.14
42067;BME280;27734;47.028;28.820;2022-10-23T01:58:31;100277.00;;;12.25;66.02
42067;BME280;27734;47.028;28.820;2022-10-23T02:01:03;100287.56;;;12.27;66.24
42067;BME280;27734;47.028;28.820;2022-10-23T02:03:35;100292.83;;;12.27;66.26
42067;BME280;27734;47.028;28.820;2022-10-23T02:06:06;100312.08;;;12.26;66.26
42067;BME280;27734;47.028;28.820;2022-10-23T02:08:34;100312.96;;;12.26;66.20
42067;BME280;27734;47.028;28.820;2022-10-23T02:11:07;100324.39;;;12.27;66.48
42067;BME280;27734;47.028;28.820;2022-10-23T02:13:41;100329.66;;;12.27;66.33
42067;BME280;27734;47.028;28.820;2022-10-23T02:16:20;100320.89;;;12.28;66.25
42067;BME280;27734;47.028;28.820;2022-10-23T02:18:56;100327.06;;;12.28;66.42
42067;BME280;27734;47.028;28.820;2022-10-23T02:21:32;100319.17;;;12.28;66.46
42067;BME280;27734;47.028;28.820;2022-10-23T02:24:04;100328.83;;;12.29;66.37
42067;BME280;27734;47.028;28.820;2022-10-23T02:26:39;100329.70;;;12.28;66.62
42067;BME280;27734;47.028;28.820;2022-10-23T02:29:11;100321.73;;;12.25;66.76
42067;BME280;27734;47.028;28.820;2022-10-23T02:31:43;100332.17;;;12.22;66.70
42067;BME280;27734;47.028;28.820;2022-10-23T02:34:12;100339.19;;;12.23;66.67
42067;BME280;27734;47.028;28.820;2022-10-23T02:36:40;100338.39;;;12.26;66.62
42067;BME280;27734;47.028;28.820;2022-10-23T02:39:09;100343.69;;;12.27;66.98
42067;BME280;27734;47.028;28.820;2022-10-23T02:41:42;100341.10;;;12.29;66.80
42067;BME280;27734;47.028;28.820;2022-10-23T02:44:24;100353.42;;;12.30;66.80
42067;BME280;27734;47.028;28.820;2022-10-23T02:47:03;100354.25;;;12.29;66.71
42067;BME280;27734;47.028;28.820;2022-10-23T02:49:40;100362.14;;;12.29;67.04
42067;BME280;27734;47.028;28.820;2022-10-23T02:52:17;100362.98;;;12.28;66.80
42067;BME280;27734;47.028;28.820;2022-10-23T02:55:04;100368.16;;;12.25;67.28
42067;BME280;27734;47.028;28.820;2022-10-23T02:57:47;100365.45;;;12.21;66.96
42067;BME280;27734;47.028;28.820;2022-10-23T03:00:20;100367.20;;;12.21;67.35
42067;BME280;27734;47.028;28.820;2022-10-23T03:02:54;100368.95;;;12.20;67.30
42067;BME280;27734;47.028;28.820;2022-10-23T03:05:26;100372.42;;;12.19;67.51
42067;BME280;27734;47.028;28.820;2022-10-23T03:07:57;100375.01;;;12.18;67.64
42067;BME280;27734;47.028;28.820;2022-10-23T03:10:25;100384.66;;;12.17;67.68
42067;BME280;27734;47.028;28.820;2022-10-23T03:12:53;100386.23;;;12.11;67.68
42067;BME280;27734;47.028;28.820;2022-10-23T03:15:22;100389.40;;;11.99;67.72
42067;BME280;27734;47.028;28.820;2022-10-23T03:17:51;100388.09;;;11.84;68.08
42067;BME280;27734;47.028;28.820;2022-10-23T03:20:19;100387.73;;;11.72;68.11
42067;BME280;27734;47.028;28.820;2022-10-23T03:22:47;100385.67;;;11.62;68.53
42067;BME280;27734;47.028;28.820;2022-10-23T03:25:16;100381.05;;;11.53;68.27
42067;BME280;27734;47.028;28.820;2022-10-23T03:27:46;100390.46;;;11.46;68.66
42067;BME280;27734;47.028;28.820;2022-10-23T03:30:16;100391.09;;;11.38;68.73
42067;BME280;27734;47.028;28.820;2022-10-23T03:32:45;100387.27;;;11.28;68.49
42067;BME280;27734;47.028;28.820;2022-10-23T03:35:13;100385.22;;;11.18;69.48
42067;BME280;27734;47.028;28.820;2022-10-23T03:37:41;100391.11;;;11.10;69.26
42067;BME280;27734;47.028;28.820;2022-10-23T03:40:13;100393.44;;;11.01;69.69
42067;BME280;27734;47.028;28.820;2022-10-23T03:42:42;100392.27;;;10.91;69.87
42067;BME280;27734;47.028;28.820;2022-10-23T03:45:12;100399.83;;;10.82;70.35
42067;BME280;27734;47.028;28.820;2022-10-23T03:47:41;100398.75;;;10.75;70.06
42067;BME280;27734;47.028;28.820;2022-10-23T03:50:10;100402.05;;;10.70;70.82
42067;BME280;27734;47.028;28.820;2022-10-23T03:52:40;100398.44;;;10.66;70.49
42067;BME280;27734;47.028;28.820;2022-10-23T03:55:09;100398.28;;;10.61;71.16
42067;BME280;27734;47.028;28.820;2022-10-23T03:57:39;100402.51;;;10.58;71.15
42067;BME280;27734;47.028;28.820;2022-10-23T04:00:10;100405.03;;;10.55;71.59
42067;BME280;27734;47.028;28.820;2022-10-23T04:02:45;100402.38;;;10.53;71.66
42067;BME280;27734;47.028;28.820;2022-10-23T04:05:13;100402.28;;;10.50;71.59
42067;BME280;27734;47.028;28.820;2022-10-23T04:07:42;100403.94;;;10.48;71.79
42067;BME280;27734;47.028;28.820;2022-10-23T04:10:11;100407.42;;;10.47;72.12
42067;BME280;27734;47.028;28.820;2022-10-23T04:12:40;100404.74;;;10.46;72.04
42067;BME280;27734;47.028;28.820;2022-10-23T04:15:09;100410.81;;;10.45;71.97
42067;BME280;27734;47.028;28.820;2022-10-23T04:17:38;100405.58;;;10.45;72.21
42067;BME280;27734;47.028;28.820;2022-10-23T04:20:07;100409.99;;;10.46;72.15
42067;BME280;27734;47.028;28.820;2022-10-23T04:22:36;100417.75;;;10.42;72.89
42067;BME280;27734;47.028;28.820;2022-10-23T04:25:05;100415.95;;;10.41;72.22
42067;BME280;27734;47.028;28.820;2022-10-23T04:27:35;100419.52;;;10.43;72.45
42067;BME280;27734;47.028;28.820;2022-10-23T04:30:05;100415.12;;;10.42;72.88
42067;BME280;27734;47.028;28.820;2022-10-23T04:32:33;100408.19;;;10.45;73.07
42067;BME280;27734;47.028;28.820;2022-10-23T04:35:02;100410.05;;;10.47;73.24
42067;BME280;27734;47.028;28.820;2022-10-23T04:37:32;100418.02;;;10.50;72.90
42067;BME280;27734;47.028;28.820;2022-10-23T04:40:01;100414.59;;;10.53;73.66
42067;BME280;27734;47.028;28.820;2022-10-23T04:42:29;100425.08;;;10.53;74.23
42067;BME280;27734;47.028;28.820;2022-10-23T04:44:59;100416.33;;;10.52;74.71
42067;BME280;27734;47.028;28.820;2022-10-23T04:47:28;100416.22;;;10.49;74.26
42067;BME280;27734;47.028;28.820;2022-10-23T04:49:59;100428.52;;;10.50;74.89
42067;BME280;27734;47.028;28.820;2022-10-23T04:52:46;100434.64;;;10.51;75.01
42067;BME280;27734;47.028;28.820;2022-10-23T04:55:33;100435.47;;;10.50;75.15
42067;BME280;27734;47.028;28.820;2022-10-23T04:58:14;100439.84;;;10.49;75.10
42067;BME280;27734;47.028;28.820;2022-10-23T05:00:45;100441.58;;;10.49;74.95
42067;BME280;27734;47.028;28.820;2022-10-23T05:03:17;100442.41;;;10.48;74.93
42067;BME280;27734;47.028;28.820;2022-10-23T05:05:46;100440.66;;;10.48;75.26
42067;BME280;27734;47.028;28.820;2022-10-23T05:08:33;100433.77;;;10.50;75.36
42067;BME280;27734;47.028;28.820;2022-10-23T05:11:19;100438.20;;;10.53;75.39
42067;BME280;27734;47.028;28.820;2022-10-23T05:13:50;100443.55;;;10.56;75.37
42067;BME280;27734;47.028;28.820;2022-10-23T05:16:29;100446.29;;;10.59;75.23
42067;BME280;27734;47.028;28.820;2022-10-23T05:19:00;100448.19;;;10.63;76.00
42067;BME280;27734;47.028;28.820;2022-10-23T05:21:30;100448.34;;;10.68;75.73
42067;BME280;27734;47.028;28.820;2022-10-23T05:24:01;100456.38;;;10.72;76.54
42067;BME280;27734;47.028;28.820;2022-10-23T05:26:30;100454.69;;;10.74;76.18
42067;BME280;27734;47.028;28.820;2022-10-23T05:29:02;100454.80;;;10.77;76.50
42067;BME280;27734;47.028;28.820;2022-10-23T05:31:32;100463.60;;;10.79;76.42
42067;BME280;27734;47.028;28.820;2022-10-23T05:34:06;100477.80;;;10.85;76.43
42067;BME280;27734;47.028;28.820;2022-10-23T05:36:36;100471.80;;;10.89;76.96
42067;BME280;27734;47.028;28.820;2022-10-23T05:39:05;100471.13;;;10.94;77.41
42067;BME280;27734;47.028;28.820;2022-10-23T05:41:33;100465.97;;;10.97;77.16
42067;BME280;27734;47.028;28.820;2022-10-23T05:44:02;100481.05;;;11.03;77.14
42067;BME280;27734;47.028;28.820;2022-10-23T05:46:49;100481.22;;;11.09;77.08
42067;BME280;27734;47.028;28.820;2022-10-23T05:49:36;100498.10;;;11.16;78.06
42067;BME280;27734;47.028;28.820;2022-10-23T05:52:40;100499.19;;;11.23;78.26
42067;BME280;27734;47.028;28.820;2022-10-23T05:55:28;100505.42;;;11.26;78.84
42067;BME280;27734;47.028;28.820;2022-10-23T05:58:17;100501.08;;;11.27;79.08
42067;BME280;27734;47.028;28.820;2022-10-23T06:01:05;100505.42;;;11.26;78.53
42067;BME280;27734;47.028;28.820;2022-10-23T06:03:51;100513.25;;;11.25;78.86
42067;BME280;27734;47.028;28.820;2022-10-23T06:06:19;100520.30;;;11.26;80.21
42067;BME280;27734;47.028;28.820;2022-10-23T06:08:50;100517.58;;;11.23;79.43
42067;BME280;27734;47.028;28.820;2022-10-23T06:11:19;100520.15;;;11.21;79.02
42067;BME280;27734;47.028;28.820;2022-10-23T06:13:56;100518.41;;;11.22;79.79
42067;BME280;27734;47.028;28.820;2022-10-23T06:16:24;100518.50;;;11.25;79.46
42067;BME280;27734;47.028;28.820;2022-10-23T06:18:54;100513.35;;;11.28;80.19
42067;BME280;27734;47.028;28.820;2022-10-23T06:21:24;100515.30;;;11.33;79.89
42067;BME280;27734;47.028;28.820;2022-10-23T06:23:54;100514.63;;;11.39;79.37
42067;BME280;27734;47.028;28.820;2022-10-23T06:26:42;100519.11;;;11.43;79.94
42067;BME280;27734;47.028;28.820;2022-10-23T06:29:15;100521.89;;;11.48;79.71
42067;BME280;27734;47.028;28.820;2022-10-23T06:31:44;100522.91;;;11.51;80.16
42067;BME280;27734;47.028;28.820;2022-10-23T06:34:13;100529.14;;;11.55;80.01
42067;BME280;27734;47.028;28.820;2022-10-23T06:36:41;100530.17;;;11.60;79.66
42067;BME280;27734;47.028;28.820;2022-10-23T06:39:47;100535.52;;;11.63;80.14
42067;BME280;27734;47.028;28.820;2022-10-23T06:42:38;100537.38;;;11.66;80.02
42067;BME280;27734;47.028;28.820;2022-10-23T06:45:25;100527.88;;;11.71;81.09
42067;BME280;27734;47.028;28.820;2022-10-23T06:47:54;100531.48;;;11.75;80.72
42067;BME280;27734;47.028;28.820;2022-10-23T06:53:04;100520.52;;;11.88;80.96
42067;BME280;27734;47.028;28.820;2022-10-23T06:55:33;100525.13;;;11.94;80.30
42067;BME280;27734;47.028;28.820;2022-10-23T06:58:03;100528.87;;;12.02;80.66
42067;BME280;27734;47.028;28.820;2022-10-23T07:00:38;100531.69;;;12.08;80.28
42067;BME280;27734;47.028;28.820;2022-10-23T07:03:07;100535.29;;;12.12;80.72
42067;BME280;27734;47.028;28.820;2022-10-23T07:05:36;100542.34;;;12.13;81.01
42067;BME280;27734;47.028;28.820;2022-10-23T07:08:05;100539.77;;;12.14;80.49
42067;BME280;27734;47.028;28.820;2022-10-23T07:10:38;100525.83;;;12.18;81.19
42067;BME280;27734;47.028;28.820;2022-10-23T07:13:10;100534.77;;;12.23;81.28
42067;BME280;27734;47.028;28.820;2022-10-23T07:15:56;100533.16;;;12.29;80.77
42067;BME280;27734;47.028;28.820;2022-10-23T07:18:26;100531.59;;;12.35;80.72
42067;BME280;27734;47.028;28.820;2022-10-23T07:21:13;100535.45;;;12.47;80.75
42067;BME280;27734;47.028;28.820;2022-10-23T07:23:42;100532.95;;;12.51;80.93
42067;BME280;27734;47.028;28.820;2022-10-23T07:26:13;100531.37;;;12.58;80.84
42067;BME280;27734;47.028;28.820;2022-10-23T07:28:44;100538.34;;;12.56;80.61
42067;BME280;27734;47.028;28.820;2022-10-23T07:31:14;100541.77;;;12.53;80.61
42067;BME280;27734;47.028;28.820;2022-10-23T07:34:03;100532.81;;;12.47;81.05
42067;BME280;27734;47.028;28.820;2022-10-23T07:36:33;100540.75;;;12.48;80.95
42067;BME280;27734;47.028;28.820;2022-10-23T07:39:01;100550.37;;;12.48;80.72
42067;BME280;27734;47.028;28.820;2022-10-23T07:41:30;100555.02;;;12.56;81.12
42067;BME280;27734;47.028;28.820;2022-10-23T07:44:02;100553.39;;;12.62;80.63
42067;BME280;27734;47.028;28.820;2022-10-23T07:46:30;100565.06;;;12.71;81.61
42067;BME280;27734;47.028;28.820;2022-10-23T07:48:59;100556.41;;;12.75;81.32
42067;BME280;27734;47.028;28.820;2022-10-23T07:51:27;100570.55;;;12.79;81.39
42067;BME280;27734;47.028;28.820;2022-10-23T07:53:59;100566.23;;;12.81;81.34
42067;BME280;27734;47.028;28.820;2022-10-23T07:56:46;100570.67;;;12.84;81.37
42067;BME280;27734;47.028;28.820;2022-10-23T07:59:21;100563.90;;;12.92;81.27
42067;BME280;27734;47.028;28.820;2022-10-23T08:01:53;100568.33;;;12.94;81.70
42067;BME280;27734;47.028;28.820;2022-10-23T08:04:23;100570.17;;;12.97;80.86
42067;BME280;27734;47.028;28.820;2022-10-23T08:06:55;100576.48;;;13.04;81.67
42067;BME280;27734;47.028;28.820;2022-10-23T08:09:25;100574.89;;;13.09;80.99
42067;BME280;27734;47.028;28.820;2022-10-23T08:11:53;100572.34;;;13.12;81.18
42067;BME280;27734;47.028;28.820;2022-10-23T08:14:22;100582.00;;;13.13;81.15
42067;BME280;27734;47.028;28.820;2022-10-23T08:16:51;100585.55;;;13.13;80.88
42067;BME280;27734;47.028;28.820;2022-10-23T08:19:19;100599.73;;;13.19;81.66
42067;BME280;27734;47.028;28.820;2022-10-23T08:21:50;100597.94;;;13.18;81.20
42067;BME280;27734;47.028;28.820;2022-10-23T08:24:21;100597.17;;;13.22;81.18
42067;BME280;27734;47.028;28.820;2022-10-23T08:26:50;100593.88;;;13.30;81.79
42067;BME280;27734;47.028;28.820;2022-10-23T08:29:20;100597.93;;;13.50;81.66
42067;BME280;27734;47.028;28.820;2022-10-23T08:31:52;100590.25;;;13.59;81.49
42067;BME280;27734;47.028;28.820;2022-10-23T08:34:33;100607.14;;;13.67;81.66
42067;BME280;27734;47.028;28.820;2022-10-23T08:37:04;100615.05;;;13.67;81.51
42067;BME280;27734;47.028;28.820;2022-10-23T08:39:34;100614.02;;;13.60;81.77
42067;BME280;27734;47.028;28.820;2022-10-23T08:42:22;100622.53;;;13.50;81.31
42067;BME280;27734;47.028;28.820;2022-10-23T08:44:58;100633.64;;;13.38;81.54
42067;BME280;27734;47.028;28.820;2022-10-23T08:47:32;100637.75;;;13.28;81.23
42067;BME280;27734;47.028;28.820;2022-10-23T08:50:25;100643.69;;;13.21;81.58
42067;BME280;27734;47.028;28.820;2022-10-23T08:52:59;100647.07;;;13.16;82.68
42067;BME280;27734;47.028;28.820;2022-10-23T08:55:33;100645.23;;;13.13;81.82
42067;BME280;27734;47.028;28.820;2022-10-23T08:58:06;100638.95;;;13.08;81.65
42067;BME280;27734;47.028;28.820;2022-10-23T09:00:35;100643.26;;;13.04;82.10
42067;BME280;27734;47.028;28.820;2022-10-23T09:03:04;100644.05;;;13.02;81.88
42067;BME280;27734;47.028;28.820;2022-10-23T09:05:36;100648.35;;;12.98;81.56
42067;BME280;27734;47.028;28.820;2022-10-23T09:08:22;100657.09;;;12.97;82.49
42067;BME280;27734;47.028;28.820;2022-10-23T09:11:04;100649.98;;;12.94;82.82
42067;BME280;27734;47.028;28.820;2022-10-23T09:14:01;100646.47;;;12.94;82.61
42067;BME280;27734;47.028;28.820;2022-10-23T09:16:39;100651.73;;;12.94;82.57
42067;BME280;27734;47.028;28.820;2022-10-23T09:19:13;100653.53;;;12.95;82.89
42067;BME280;27734;47.028;28.820;2022-10-23T09:21:44;100650.90;;;12.95;82.93
42067;BME280;27734;47.028;28.820;2022-10-23T09:24:16;100657.89;;;12.94;83.51
42067;BME280;27734;47.028;28.820;2022-10-23T09:26:46;100652.70;;;12.98;83.04
42067;BME280;27734;47.028;28.820;2022-10-23T09:29:22;100659.77;;;12.99;83.12
42067;BME280;27734;47.028;28.820;2022-10-23T09:31:53;100657.27;;;13.03;83.70
42067;BME280;27734;47.028;28.820;2022-10-23T09:34:23;100659.94;;;13.05;82.74
42067;BME280;27734;47.028;28.820;2022-10-23T09:36:54;100650.33;;;13.07;83.22
42067;BME280;27734;47.028;28.820;2022-10-23T09:39:28;100652.17;;;13.09;83.46
42067;BME280;27734;47.028;28.820;2022-10-23T09:41:57;100648.78;;;13.13;83.37
42067;BME280;27734;47.028;28.820;2022-10-23T09:44:28;100661.13;;;13.16;83.24
42067;BME280;27734;47.028;28.820;2022-10-23T09:47:07;100659.45;;;13.20;83.59
42067;BME280;27734;47.028;28.820;2022-10-23T09:49:39;100655.27;;;13.26;83.27
42067;BME280;27734;47.028;28.820;2022-10-23T09:52:23;100654.68;;;13.37;83.73
42067;BME280;27734;47.028;28.820;2022-10-23T09:54:55;100655.80;;;13.45;83.27
42067;BME280;27734;47.028;28.820;2022-10-23T09:57:29;100651.61;;;13.53;83.10
42067;BME280;27734;47.028;28.820;2022-10-23T10:00:02;100653.57;;;13.60;82.61
42067;BME280;27734;47.028;28.820;2022-10-23T10:02:41;100662.52;;;13.67;83.52
42067;BME280;27734;47.028;28.820;2022-10-23T10:05:40;100659.09;;;13.71;83.61
42067;BME280;27734;47.028;28.820;2022-10-23T10:08:26;100656.48;;;13.73;82.55
42067;BME280;27734;47.028;28.820;2022-10-23T10:11:00;100653.92;;;13.76;82.61
42067;BME280;27734;47.028;28.820;2022-10-23T10:13:42;100657.56;;;13.79;82.35
42067;BME280;27734;47.028;28.820;2022-10-23T10:16:19;100658.48;;;13.81;82.85
42067;BME280;27734;47.028;28.820;2022-10-23T10:18:55;100654.05;;;13.80;82.35
42067;BME280;27734;47.028;28.820;2022-10-23T10:21:28;100657.59;;;13.81;83.28
42067;BME280;27734;47.028;28.820;2022-10-23T10:24:05;100671.63;;;13.80;83.19
42067;BME280;27734;47.028;28.820;2022-10-23T10:26:42;100661.92;;;13.79;83.22
42067;BME280;27734;47.028;28.820;2022-10-23T10:29:20;100670.75;;;13.79;82.71
42067;BME280;27734;47.028;28.820;2022-10-23T10:32:09;100669.87;;;13.80;83.44
42067;BME280;27734;47.028;28.820;2022-10-23T10:34:46;100668.15;;;13.81;83.19
42067;BME280;27734;47.028;28.820;2022-10-23T10:37:27;100674.34;;;13.83;83.63
42067;BME280;27734;47.028;28.820;2022-10-23T10:40:01;100666.43;;;13.83;83.13
42067;BME280;27734;47.028;28.820;2022-10-23T10:42:45;100668.19;;;13.82;82.68
42067;BME280;27734;47.028;28.820;2022-10-23T10:45:29;100655.88;;;13.83;82.74
42067;BME280;27734;47.028;28.820;2022-10-23T10:48:22;100663.95;;;13.89;83.13
42067;BME280;27734;47.028;28.820;2022-10-23T10:51:22;100664.91;;;13.93;83.00
42067;BME280;27734;47.028;28.820;2022-10-23T10:54:09;100659.70;;;13.96;83.65
42067;BME280;27734;47.028;28.820;2022-10-23T10:56:40;100659.78;;;13.99;82.64
42067;BME280;27734;47.028;28.820;2022-10-23T10:59:15;100665.05;;;13.99;82.72
42067;BME280;27734;47.028;28.820;2022-10-23T11:01:49;100662.45;;;14.00;83.25
42067;BME280;27734;47.028;28.820;2022-10-23T11:04:29;100664.28;;;14.03;83.18
42067;BME280;27734;47.028;28.820;2022-10-23T11:07:04;100665.31;;;14.10;82.53
42067;BME280;27734;47.028;28.820;2022-10-23T11:09:34;100664.58;;;14.15;82.37
42067;BME280;27734;47.028;28.820;2022-10-23T11:12:03;100659.41;;;14.20;83.16
42067;BME280;27734;47.028;28.820;2022-10-23T11:14:34;100645.41;;;14.24;82.38
42067;BME280;27734;47.028;28.820;2022-10-23T11:17:06;100659.59;;;14.28;83.14
42067;BME280;27734;47.028;28.820;2022-10-23T11:19:41;100651.85;;;14.35;83.01
42067;BME280;27734;47.028;28.820;2022-10-23T11:22:18;100658.96;;;14.39;83.13
42067;BME280;27734;47.028;28.820;2022-10-23T11:25:19;100657.37;;;14.46;82.89
42067;BME280;27734;47.028;28.820;2022-10-23T11:28:05;100655.68;;;14.50;82.72
42067;BME280;27734;47.028;28.820;2022-10-23T11:30:52;100659.23;;;14.52;82.28
42067;BME280;27734;47.028;28.820;2022-10-23T11:36:44;100667.13;;;14.50;82.69
42067;BME280;27734;47.028;28.820;2022-10-23T11:39:23;100673.32;;;14.51;81.68
42067;BME280;27734;47.028;28.820;2022-10-23T11:41:56;100675.89;;;14.48;82.49
42067;BME280;27734;47.028;28.820;2022-10-23T11:44:39;100681.10;;;14.45;82.59
42067;BME280;27734;47.028;28.820;2022-10-23T11:47:26;100668.71;;;14.42;82.55
42067;BME280;27734;47.028;28.820;2022-10-23T11:50:22;100681.91;;;14.42;82.48
42067;BME280;27734;47.028;28.820;2022-10-23T11:53:04;100688.11;;;14.44;81.66
42067;BME280;27734;47.028;28.820;2022-10-23T11:55:37;100679.48;;;14.51;82.56
42067;BME280;27734;47.028;28.820;2022-10-23T11:58:20;100676.06;;;14.55;82.55
42067;BME280;27734;47.028;28.820;2022-10-23T12:00:56;100684.16;;;14.62;82.37
42067;BME280;27734;47.028;28.820;2022-10-23T12:03:29;100680.77;;;14.69;81.97
42067;BME280;27734;47.028;28.820;2022-10-23T12:06:03;100681.75;;;14.72;82.28
42067;BME280;27734;47.028;28.820;2022-10-23T12:08:36;100680.91;;;14.75;81.87
42067;BME280;27734;47.028;28.820;2022-10-23T12:11:25;100681.85;;;14.79;81.84
42067;BME280;27734;47.028;28.820;2022-10-23T12:13:54;100695.19;;;14.85;81.51
42067;BME280;27734;47.028;28.820;2022-10-23T12:16:34;100685.70;;;14.93;80.95
42067;BME280;27734;47.028;28.820;2022-10-23T12:19:18;100689.45;;;15.04;81.36
42067;BME280;27734;47.028;28.820;2022-10-23T12:21:50;100697.56;;;15.14;80.82
42067;BME280;27734;47.028;28.820;2022-10-23T12:24:54;100685.50;;;15.28;81.48
42067;BME280;27734;47.028;28.820;2022-10-23T12:27:31;100691.77;;;15.33;80.51
42067;BME280;27734;47.028;28.820;2022-10-23T12:30:20;100696.08;;;15.28;79.97
42067;BME280;27734;47.028;28.820;2022-10-23T12:33:08;100689.82;;;15.23;80.78
42067;BME280;27734;47.028;28.820;2022-10-23T12:38:43;100694.28;;;15.25;79.87
42067;BME280;27734;47.028;28.820;2022-10-23T12:41:15;100695.23;;;15.29;80.24
42067;BME280;27734;47.028;28.820;2022-10-23T12:43:51;100703.19;;;15.31;80.14
42067;BME280;27734;47.028;28.820;2022-10-23T12:46:33;100701.48;;;15.34;79.94
42067;BME280;27734;47.028;28.820;2022-10-23T12:49:13;100698.97;;;15.40;79.93
42067;BME280;27734;47.028;28.820;2022-10-23T12:51:42;100702.58;;;15.45;79.13
42067;BME280;27734;47.028;28.820;2022-10-23T12:54:16;100696.44;;;15.46;80.04
42067;BME280;27734;47.028;28.820;2022-10-23T12:56:45;100691.12;;;15.45;79.60
42067;BME280;27734;47.028;28.820;2022-10-23T12:59:16;100689.35;;;15.45;79.62
42067;BME280;27734;47.028;28.820;2022-10-23T13:01:45;100682.33;;;15.46;79.21
42067;BME280;27734;47.028;28.820;2022-10-23T13:04:19;100678.80;;;15.47;78.98
42067;BME280;27734;47.028;28.820;2022-10-23T13:06:49;100681.48;;;15.49;78.85
42067;BME280;27734;47.028;28.820;2022-10-23T13:09:23;100685.06;;;15.51;79.02
42067;BME280;27734;47.028;28.820;2022-10-23T13:12:26;100687.80;;;15.55;78.34
42067;BME280;27734;47.028;28.820;2022-10-23T13:15:00;100689.58;;;15.58;77.93
42067;BME280;27734;47.028;28.820;2022-10-23T13:17:35;100695.81;;;15.60;78.02
42067;BME280;27734;47.028;28.820;2022-10-23T13:20:21;100696.66;;;15.59;77.68
42067;BME280;27734;47.028;28.820;2022-10-23T13:22:55;100689.55;;;15.56;78.35
42067;BME280;27734;47.028;28.820;2022-10-23T13:25:25;100691.32;;;15.56;77.65
42067;BME280;27734;47.028;28.820;2022-10-23T13:28:21;100704.55;;;15.56;77.86